This is the latest recevied weather packets stored in our database for station/object ON3FV. If no packets are shown the sender has not sent any weather packets the latest 10 day(s).
| Time | Temp. | Humidity | Pressure | Rain* | Wind** | Luminosity | Snow |
|---|---|---|---|---|---|---|---|
| 1778170029 | 14.44° C | 73% | 1015.1 hPa | - | - | - | - |
| 1778169427 | 14.44° C | 73% | 1015 hPa | - | - | - | - |
| 1778167320 | 14.44° C | 71% | 1015.1 hPa | - | - | - | - |
| 1778164611 | 15° C | 69% | 1015 hPa | - | - | - | - |
| 1778163709 | 15.56° C | 67% | 1015.1 hPa | - | - | - | - |
| 1778161902 | 16.67° C | 66% | 1015 hPa | - | - | - | - |
| 1778161319 | 16.67° C | 70% | 1015 hPa | - | - | - | - |
| 1778159534 | 15.56° C | 72% | 1015.1 hPa | - | - | - | - |
| 1778158290 | 15.56° C | 71% | 1015.2 hPa | - | - | - | - |
| 1778157386 | 15.56° C | 73% | 1015.2 hPa | - | - | - | - |
| 1778155881 | 15° C | 72% | 1015.2 hPa | - | - | - | - |
| 1778155581 | 15° C | 72% | 1015.2 hPa | - | - | - | - |
| 1778155281 | 15° C | 74% | 1015.1 hPa | - | - | - | - |
| 1778154678 | 15° C | 73% | 1015.1 hPa | - | - | - | - |
| 1778151367 | 14.44° C | 77% | 1015.4 hPa | - | - | - | - |
| 1778151065 | 14.44° C | 76% | 1015.5 hPa | - | - | - | - |
| 1778148056 | 12.78° C | 81% | 1015.4 hPa | - | - | - | - |
| 1778147754 | 12.78° C | 81% | 1015.4 hPa | - | - | - | - |
| 1778145648 | 12.22° C | 84% | 1015.2 hPa | - | - | - | - |
| 1778144745 | 12.22° C | 85% | 1015.1 hPa | - | - | - | - |
| 1778142638 | 11.11° C | 88% | 1015 hPa | - | - | - | - |
| 1778140551 | 10.56° C | 89% | 1014.9 hPa | - | - | - | - |
| 1778139026 | 10° C | 89% | 1014.6 hPa | - | - | - | - |
| 1778138746 | 10° C | 89% | 1014.6 hPa | - | - | - | - |
| 1778138423 | 9.44° C | 89% | 1014.6 hPa | - | - | - | - |
* Rain since midnight (hover to see other rain measurements)
** Current wind speed in m/s (hover to see current wind gust speed)